sensor_id;sensor_type;location;lat;lon;timestamp;temperature;humidity
15115;DHT22;7658;51.456;7.622;2024-01-30T00:01:42;4.00;99.90
15115;DHT22;7658;51.456;7.622;2024-01-30T00:04:07;4.00;99.90
15115;DHT22;7658;51.456;7.622;2024-01-30T00:06:33;4.00;99.90
15115;DHT22;7658;51.456;7.622;2024-01-30T00:08:59;4.00;99.90
15115;DHT22;7658;51.456;7.622;2024-01-30T00:11:25;4.00;99.90
15115;DHT22;7658;51.456;7.622;2024-01-30T00:13:51;4.00;99.90
15115;DHT22;7658;51.456;7.622;2024-01-30T00:16:21;4.00;99.90
15115;DHT22;7658;51.456;7.622;2024-01-30T00:18:47;4.00;99.90
15115;DHT22;7658;51.456;7.622;2024-01-30T00:21:13;4.00;99.90
15115;DHT22;7658;51.456;7.622;2024-01-30T00:23:39;3.90;99.90
15115;DHT22;7658;51.456;7.622;2024-01-30T00:26:05;3.90;99.90
15115;DHT22;7658;51.456;7.622;2024-01-30T00:28:31;4.00;99.90
15115;DHT22;7658;51.456;7.622;2024-01-30T00:30:57;4.00;99.90
15115;DHT22;7658;51.456;7.622;2024-01-30T00:33:23;4.00;99.90
15115;DHT22;7658;51.456;7.622;2024-01-30T00:35:48;4.00;99.90
15115;DHT22;7658;51.456;7.622;2024-01-30T00:38:14;4.00;99.90
15115;DHT22;7658;51.456;7.622;2024-01-30T00:40:40;3.90;99.90
15115;DHT22;7658;51.456;7.622;2024-01-30T00:43:06;3.90;99.90
15115;DHT22;7658;51.456;7.622;2024-01-30T00:45:31;3.80;99.90
15115;DHT22;7658;51.456;7.622;2024-01-30T00:47:57;3.70;99.90
15115;DHT22;7658;51.456;7.622;2024-01-30T00:50:23;3.70;99.90
15115;DHT22;7658;51.456;7.622;2024-01-30T00:52:49;3.70;99.90
15115;DHT22;7658;51.456;7.622;2024-01-30T00:55:14;3.60;99.90
15115;DHT22;7658;51.456;7.622;2024-01-30T00:57:40;3.70;99.90
15115;DHT22;7658;51.456;7.622;2024-01-30T01:00:07;3.70;99.90
15115;DHT22;7658;51.456;7.622;2024-01-30T01:02:35;3.60;99.90
15115;DHT22;7658;51.456;7.622;2024-01-30T01:05:01;3.60;99.90
15115;DHT22;7658;51.456;7.622;2024-01-30T01:07:27;3.60;99.90
15115;DHT22;7658;51.456;7.622;2024-01-30T01:09:52;3.60;99.90
15115;DHT22;7658;51.456;7.622;2024-01-30T01:12:18;3.60;99.90
15115;DHT22;7658;51.456;7.622;2024-01-30T01:14:45;3.70;99.90
15115;DHT22;7658;51.456;7.622;2024-01-30T01:17:12;3.70;99.90
15115;DHT22;7658;51.456;7.622;2024-01-30T01:19:37;3.60;99.90
15115;DHT22;7658;51.456;7.622;2024-01-30T01:22:03;3.60;99.90
15115;DHT22;7658;51.456;7.622;2024-01-30T01:24:31;3.50;99.90
15115;DHT22;7658;51.456;7.622;2024-01-30T01:26:58;3.40;99.90
15115;DHT22;7658;51.456;7.622;2024-01-30T01:29:24;3.50;99.90
15115;DHT22;7658;51.456;7.622;2024-01-30T01:31:56;3.50;99.90
15115;DHT22;7658;51.456;7.622;2024-01-30T01:34:22;3.50;99.90
15115;DHT22;7658;51.456;7.622;2024-01-30T01:36:49;3.50;99.90
15115;DHT22;7658;51.456;7.622;2024-01-30T01:39:15;3.50;99.90
15115;DHT22;7658;51.456;7.622;2024-01-30T01:41:41;3.50;99.90
15115;DHT22;7658;51.456;7.622;2024-01-30T01:44:07;3.50;99.90
15115;DHT22;7658;51.456;7.622;2024-01-30T01:46:34;3.40;99.90
15115;DHT22;7658;51.456;7.622;2024-01-30T01:49:04;3.40;99.90
15115;DHT22;7658;51.456;7.622;2024-01-30T01:51:33;3.40;99.90
15115;DHT22;7658;51.456;7.622;2024-01-30T01:54:04;3.30;99.90
15115;DHT22;7658;51.456;7.622;2024-01-30T01:56:31;3.30;99.90
15115;DHT22;7658;51.456;7.622;2024-01-30T01:59:05;3.20;99.90
15115;DHT22;7658;51.456;7.622;2024-01-30T02:01:33;3.20;99.90
15115;DHT22;7658;51.456;7.622;2024-01-30T02:04:00;3.20;99.90
15115;DHT22;7658;51.456;7.622;2024-01-30T02:06:27;3.20;99.90
15115;DHT22;7658;51.456;7.622;2024-01-30T02:08:53;3.10;99.90
15115;DHT22;7658;51.456;7.622;2024-01-30T02:11:20;3.10;99.90
15115;DHT22;7658;51.456;7.622;2024-01-30T02:13:46;3.10;99.90
15115;DHT22;7658;51.456;7.622;2024-01-30T02:16:12;3.10;99.90
15115;DHT22;7658;51.456;7.622;2024-01-30T02:18:38;3.10;99.90
15115;DHT22;7658;51.456;7.622;2024-01-30T02:21:08;3.10;99.90
15115;DHT22;7658;51.456;7.622;2024-01-30T02:23:34;3.10;99.90
15115;DHT22;7658;51.456;7.622;2024-01-30T02:26:00;3.10;99.90
15115;DHT22;7658;51.456;7.622;2024-01-30T02:28:26;3.10;99.90
15115;DHT22;7658;51.456;7.622;2024-01-30T02:30:53;3.10;99.90
15115;DHT22;7658;51.456;7.622;2024-01-30T02:33:19;3.10;99.90
15115;DHT22;7658;51.456;7.622;2024-01-30T02:35:45;3.10;99.90
15115;DHT22;7658;51.456;7.622;2024-01-30T02:38:10;3.00;99.90
15115;DHT22;7658;51.456;7.622;2024-01-30T02:40:36;3.10;99.90
15115;DHT22;7658;51.456;7.622;2024-01-30T02:43:03;3.00;99.90
15115;DHT22;7658;51.456;7.622;2024-01-30T02:45:29;3.00;99.90
15115;DHT22;7658;51.456;7.622;2024-01-30T02:47:55;3.00;99.90
15115;DHT22;7658;51.456;7.622;2024-01-30T02:50:21;3.00;99.90
15115;DHT22;7658;51.456;7.622;2024-01-30T02:52:46;3.00;99.90
15115;DHT22;7658;51.456;7.622;2024-01-30T02:55:12;3.00;99.90
15115;DHT22;7658;51.456;7.622;2024-01-30T02:57:38;3.00;99.90
15115;DHT22;7658;51.456;7.622;2024-01-30T03:00:05;3.00;99.90
15115;DHT22;7658;51.456;7.622;2024-01-30T03:02:32;2.90;99.90
15115;DHT22;7658;51.456;7.622;2024-01-30T03:04:59;2.90;99.90
15115;DHT22;7658;51.456;7.622;2024-01-30T03:07:25;2.90;99.90
15115;DHT22;7658;51.456;7.622;2024-01-30T03:09:50;2.90;99.90
15115;DHT22;7658;51.456;7.622;2024-01-30T03:12:16;2.80;99.90
15115;DHT22;7658;51.456;7.622;2024-01-30T03:14:42;2.90;99.90
15115;DHT22;7658;51.456;7.622;2024-01-30T03:17:08;2.90;99.90
15115;DHT22;7658;51.456;7.622;2024-01-30T03:19:33;2.90;99.90
15115;DHT22;7658;51.456;7.622;2024-01-30T03:21:59;2.90;99.90
15115;DHT22;7658;51.456;7.622;2024-01-30T03:24:25;2.90;99.90
15115;DHT22;7658;51.456;7.622;2024-01-30T03:26:51;2.90;99.90
15115;DHT22;7658;51.456;7.622;2024-01-30T03:29:17;2.90;99.90
15115;DHT22;7658;51.456;7.622;2024-01-30T03:31:42;2.90;99.90
15115;DHT22;7658;51.456;7.622;2024-01-30T03:34:08;2.90;99.90
15115;DHT22;7658;51.456;7.622;2024-01-30T03:36:34;2.90;99.90
15115;DHT22;7658;51.456;7.622;2024-01-30T03:39:00;3.00;99.90
15115;DHT22;7658;51.456;7.622;2024-01-30T03:41:26;3.00;99.90
15115;DHT22;7658;51.456;7.622;2024-01-30T03:43:52;3.10;99.90
15115;DHT22;7658;51.456;7.622;2024-01-30T03:46:18;3.10;99.90
15115;DHT22;7658;51.456;7.622;2024-01-30T03:48:45;3.00;99.90
15115;DHT22;7658;51.456;7.622;2024-01-30T03:51:11;3.00;99.90
15115;DHT22;7658;51.456;7.622;2024-01-30T03:53:44;3.00;99.90
15115;DHT22;7658;51.456;7.622;2024-01-30T03:56:11;3.00;99.90
15115;DHT22;7658;51.456;7.622;2024-01-30T03:58:39;3.00;99.90
15115;DHT22;7658;51.456;7.622;2024-01-30T04:01:05;3.00;99.90
15115;DHT22;7658;51.456;7.622;2024-01-30T04:03:30;3.00;99.90
15115;DHT22;7658;51.456;7.622;2024-01-30T04:05:56;3.00;99.90
15115;DHT22;7658;51.456;7.622;2024-01-30T04:08:22;2.90;99.90
15115;DHT22;7658;51.456;7.622;2024-01-30T04:10:48;3.00;99.90
15115;DHT22;7658;51.456;7.622;2024-01-30T04:13:14;3.00;99.90
15115;DHT22;7658;51.456;7.622;2024-01-30T04:15:40;3.00;99.90
15115;DHT22;7658;51.456;7.622;2024-01-30T04:18:06;2.90;99.90
15115;DHT22;7658;51.456;7.622;2024-01-30T04:20:31;2.90;99.90
15115;DHT22;7658;51.456;7.622;2024-01-30T04:22:57;2.90;99.90
15115;DHT22;7658;51.456;7.622;2024-01-30T04:25:23;2.90;99.90
15115;DHT22;7658;51.456;7.622;2024-01-30T04:27:49;2.80;99.90
15115;DHT22;7658;51.456;7.622;2024-01-30T04:30:15;2.90;99.90
15115;DHT22;7658;51.456;7.622;2024-01-30T04:32:41;2.90;99.90
15115;DHT22;7658;51.456;7.622;2024-01-30T04:35:07;2.90;99.90
15115;DHT22;7658;51.456;7.622;2024-01-30T04:37:32;2.80;99.90
15115;DHT22;7658;51.456;7.622;2024-01-30T04:39:58;2.70;99.90
15115;DHT22;7658;51.456;7.622;2024-01-30T04:42:24;2.80;99.90
15115;DHT22;7658;51.456;7.622;2024-01-30T04:44:50;2.70;99.90
15115;DHT22;7658;51.456;7.622;2024-01-30T04:47:16;2.70;99.90
15115;DHT22;7658;51.456;7.622;2024-01-30T04:49:42;2.70;99.90
15115;DHT22;7658;51.456;7.622;2024-01-30T04:52:08;2.70;99.90
15115;DHT22;7658;51.456;7.622;2024-01-30T04:54:35;2.70;99.90
15115;DHT22;7658;51.456;7.622;2024-01-30T04:57:02;2.70;99.90
15115;DHT22;7658;51.456;7.622;2024-01-30T04:59:28;2.60;99.90
15115;DHT22;7658;51.456;7.622;2024-01-30T05:01:54;2.70;99.90
15115;DHT22;7658;51.456;7.622;2024-01-30T05:04:20;2.70;99.90
15115;DHT22;7658;51.456;7.622;2024-01-30T05:06:47;2.70;99.90
15115;DHT22;7658;51.456;7.622;2024-01-30T05:09:13;2.60;99.90
15115;DHT22;7658;51.456;7.622;2024-01-30T05:11:42;2.60;99.90
15115;DHT22;7658;51.456;7.622;2024-01-30T05:14:07;2.60;99.90
15115;DHT22;7658;51.456;7.622;2024-01-30T05:16:37;2.60;99.90
15115;DHT22;7658;51.456;7.622;2024-01-30T05:19:03;2.60;99.90
15115;DHT22;7658;51.456;7.622;2024-01-30T05:21:29;2.60;99.90
15115;DHT22;7658;51.456;7.622;2024-01-30T05:23:54;2.60;99.90
15115;DHT22;7658;51.456;7.622;2024-01-30T05:26:20;2.60;99.90
15115;DHT22;7658;51.456;7.622;2024-01-30T05:28:48;2.60;99.90
15115;DHT22;7658;51.456;7.622;2024-01-30T05:31:14;2.60;99.90
15115;DHT22;7658;51.456;7.622;2024-01-30T05:33:40;2.60;99.90
15115;DHT22;7658;51.456;7.622;2024-01-30T05:36:06;2.50;99.90
15115;DHT22;7658;51.456;7.622;2024-01-30T05:38:32;2.60;99.90
15115;DHT22;7658;51.456;7.622;2024-01-30T05:40:58;2.50;99.90
15115;DHT22;7658;51.456;7.622;2024-01-30T05:43:24;2.50;99.90
15115;DHT22;7658;51.456;7.622;2024-01-30T05:45:50;2.50;99.90
15115;DHT22;7658;51.456;7.622;2024-01-30T05:48:16;2.40;99.90
15115;DHT22;7658;51.456;7.622;2024-01-30T05:50:42;2.40;99.90
15115;DHT22;7658;51.456;7.622;2024-01-30T05:53:07;2.40;99.90
15115;DHT22;7658;51.456;7.622;2024-01-30T05:55:33;2.50;99.90
15115;DHT22;7658;51.456;7.622;2024-01-30T05:57:59;2.40;99.90
15115;DHT22;7658;51.456;7.622;2024-01-30T06:00:25;2.40;99.90
15115;DHT22;7658;51.456;7.622;2024-01-30T06:02:50;2.50;99.90
15115;DHT22;7658;51.456;7.622;2024-01-30T06:05:16;2.40;99.90
15115;DHT22;7658;51.456;7.622;2024-01-30T06:07:42;2.40;99.90
15115;DHT22;7658;51.456;7.622;2024-01-30T06:10:08;2.40;99.90
15115;DHT22;7658;51.456;7.622;2024-01-30T06:12:35;2.40;99.90
15115;DHT22;7658;51.456;7.622;2024-01-30T06:15:01;2.40;99.90
15115;DHT22;7658;51.456;7.622;2024-01-30T06:17:27;2.40;99.90
15115;DHT22;7658;51.456;7.622;2024-01-30T06:19:53;2.40;99.90
15115;DHT22;7658;51.456;7.622;2024-01-30T06:22:19;2.40;99.90
15115;DHT22;7658;51.456;7.622;2024-01-30T06:24:45;2.40;99.90
15115;DHT22;7658;51.456;7.622;2024-01-30T06:27:14;2.40;99.90
15115;DHT22;7658;51.456;7.622;2024-01-30T06:29:42;2.50;99.90
15115;DHT22;7658;51.456;7.622;2024-01-30T06:32:08;2.40;99.90
15115;DHT22;7658;51.456;7.622;2024-01-30T06:34:34;2.40;99.90
15115;DHT22;7658;51.456;7.622;2024-01-30T06:36:59;2.40;99.90
15115;DHT22;7658;51.456;7.622;2024-01-30T06:39:26;2.40;99.90
15115;DHT22;7658;51.456;7.622;2024-01-30T06:41:52;2.40;99.90
15115;DHT22;7658;51.456;7.622;2024-01-30T06:44:18;2.50;99.90
15115;DHT22;7658;51.456;7.622;2024-01-30T06:46:43;2.50;99.90
15115;DHT22;7658;51.456;7.622;2024-01-30T06:49:09;2.50;99.90
15115;DHT22;7658;51.456;7.622;2024-01-30T06:51:35;2.50;99.90
15115;DHT22;7658;51.456;7.622;2024-01-30T06:54:01;2.50;99.90
15115;DHT22;7658;51.456;7.622;2024-01-30T06:56:26;2.60;99.90
15115;DHT22;7658;51.456;7.622;2024-01-30T06:58:52;2.60;99.90
15115;DHT22;7658;51.456;7.622;2024-01-30T07:01:20;2.60;99.90
15115;DHT22;7658;51.456;7.622;2024-01-30T07:03:46;2.60;99.90
15115;DHT22;7658;51.456;7.622;2024-01-30T07:06:12;2.70;99.90
15115;DHT22;7658;51.456;7.622;2024-01-30T07:08:38;2.70;99.90
15115;DHT22;7658;51.456;7.622;2024-01-30T07:11:06;2.60;99.90
15115;DHT22;7658;51.456;7.622;2024-01-30T07:13:33;2.60;99.90
15115;DHT22;7658;51.456;7.622;2024-01-30T07:15:59;2.60;99.90
15115;DHT22;7658;51.456;7.622;2024-01-30T07:18:25;2.70;99.90
15115;DHT22;7658;51.456;7.622;2024-01-30T07:20:51;2.60;99.90
15115;DHT22;7658;51.456;7.622;2024-01-30T07:23:17;2.70;99.90
15115;DHT22;7658;51.456;7.622;2024-01-30T07:25:46;2.80;99.90
15115;DHT22;7658;51.456;7.622;2024-01-30T07:28:15;2.80;99.90
15115;DHT22;7658;51.456;7.622;2024-01-30T07:30:44;2.90;99.90
15115;DHT22;7658;51.456;7.622;2024-01-30T07:33:10;2.90;99.90
15115;DHT22;7658;51.456;7.622;2024-01-30T07:35:36;3.00;99.90
15115;DHT22;7658;51.456;7.622;2024-01-30T07:38:02;3.00;99.90
15115;DHT22;7658;51.456;7.622;2024-01-30T07:40:29;3.10;99.90
15115;DHT22;7658;51.456;7.622;2024-01-30T07:42:56;3.10;99.90
15115;DHT22;7658;51.456;7.622;2024-01-30T07:45:22;3.10;99.90
15115;DHT22;7658;51.456;7.622;2024-01-30T07:47:51;3.10;99.90
15115;DHT22;7658;51.456;7.622;2024-01-30T07:50:17;3.20;99.90
15115;DHT22;7658;51.456;7.622;2024-01-30T07:52:43;3.20;99.90
15115;DHT22;7658;51.456;7.622;2024-01-30T07:58:17;3.30;99.90
15115;DHT22;7658;51.456;7.622;2024-01-30T08:00:43;3.30;99.90
15115;DHT22;7658;51.456;7.622;2024-01-30T08:03:09;3.40;99.90
15115;DHT22;7658;51.456;7.622;2024-01-30T08:05:34;3.40;99.90
15115;DHT22;7658;51.456;7.622;2024-01-30T08:08:00;3.40;99.90
15115;DHT22;7658;51.456;7.622;2024-01-30T08:10:26;3.50;99.90
15115;DHT22;7658;51.456;7.622;2024-01-30T08:12:52;3.50;99.90
15115;DHT22;7658;51.456;7.622;2024-01-30T08:15:18;3.60;99.90
15115;DHT22;7658;51.456;7.622;2024-01-30T08:17:44;3.60;99.90
15115;DHT22;7658;51.456;7.622;2024-01-30T08:20:11;3.70;99.90
15115;DHT22;7658;51.456;7.622;2024-01-30T08:22:40;3.70;99.90
15115;DHT22;7658;51.456;7.622;2024-01-30T08:25:06;3.80;99.90
15115;DHT22;7658;51.456;7.622;2024-01-30T08:27:33;3.90;99.90
15115;DHT22;7658;51.456;7.622;2024-01-30T08:30:01;3.90;99.90
15115;DHT22;7658;51.456;7.622;2024-01-30T08:32:27;4.00;99.90
15115;DHT22;7658;51.456;7.622;2024-01-30T08:34:52;4.10;99.90
15115;DHT22;7658;51.456;7.622;2024-01-30T08:37:18;4.20;99.90
15115;DHT22;7658;51.456;7.622;2024-01-30T08:39:44;4.30;99.90
15115;DHT22;7658;51.456;7.622;2024-01-30T08:42:10;4.40;99.90
15115;DHT22;7658;51.456;7.622;2024-01-30T08:44:36;4.50;99.90
15115;DHT22;7658;51.456;7.622;2024-01-30T08:47:01;4.60;99.90
15115;DHT22;7658;51.456;7.622;2024-01-30T08:49:28;4.70;99.90
15115;DHT22;7658;51.456;7.622;2024-01-30T08:51:54;4.70;99.90
15115;DHT22;7658;51.456;7.622;2024-01-30T08:54:20;4.80;99.90
15115;DHT22;7658;51.456;7.622;2024-01-30T08:56:46;4.80;99.90
15115;DHT22;7658;51.456;7.622;2024-01-30T08:59:11;4.90;99.90
15115;DHT22;7658;51.456;7.622;2024-01-30T09:01:37;5.00;99.90
15115;DHT22;7658;51.456;7.622;2024-01-30T09:04:03;5.00;99.90
15115;DHT22;7658;51.456;7.622;2024-01-30T09:06:29;5.00;99.90
15115;DHT22;7658;51.456;7.622;2024-01-30T09:08:54;5.10;99.90
15115;DHT22;7658;51.456;7.622;2024-01-30T09:11:20;5.10;99.90
15115;DHT22;7658;51.456;7.622;2024-01-30T09:13:46;5.20;99.90
15115;DHT22;7658;51.456;7.622;2024-01-30T09:16:12;5.30;99.90
15115;DHT22;7658;51.456;7.622;2024-01-30T09:18:38;5.30;99.90
15115;DHT22;7658;51.456;7.622;2024-01-30T09:21:04;5.40;99.90
15115;DHT22;7658;51.456;7.622;2024-01-30T09:23:29;5.50;99.90
15115;DHT22;7658;51.456;7.622;2024-01-30T09:25:56;5.60;99.90
15115;DHT22;7658;51.456;7.622;2024-01-30T09:28:21;5.70;99.90
15115;DHT22;7658;51.456;7.622;2024-01-30T09:30:47;5.80;99.90
15115;DHT22;7658;51.456;7.622;2024-01-30T09:33:13;5.90;99.90
15115;DHT22;7658;51.456;7.622;2024-01-30T09:35:39;6.00;99.90
15115;DHT22;7658;51.456;7.622;2024-01-30T09:38:04;6.10;99.90
15115;DHT22;7658;51.456;7.622;2024-01-30T09:40:30;6.40;99.90
15115;DHT22;7658;51.456;7.622;2024-01-30T09:42:56;6.90;99.90
15115;DHT22;7658;51.456;7.622;2024-01-30T09:45:25;7.40;99.90
15115;DHT22;7658;51.456;7.622;2024-01-30T09:47:52;7.70;99.90
15115;DHT22;7658;51.456;7.622;2024-01-30T09:50:19;8.10;99.90
15115;DHT22;7658;51.456;7.622;2024-01-30T09:52:46;8.50;99.90
15115;DHT22;7658;51.456;7.622;2024-01-30T09:55:13;8.80;99.90
15115;DHT22;7658;51.456;7.622;2024-01-30T09:57:39;9.10;99.90
15115;DHT22;7658;51.456;7.622;2024-01-30T10:00:05;9.30;99.90
15115;DHT22;7658;51.456;7.622;2024-01-30T10:02:34;9.50;99.90
15115;DHT22;7658;51.456;7.622;2024-01-30T10:05:01;9.60;99.90
15115;DHT22;7658;51.456;7.622;2024-01-30T10:07:27;9.70;99.90
15115;DHT22;7658;51.456;7.622;2024-01-30T10:09:53;9.80;99.90
15115;DHT22;7658;51.456;7.622;2024-01-30T10:12:19;9.80;99.90
15115;DHT22;7658;51.456;7.622;2024-01-30T10:14:45;9.90;99.90
15115;DHT22;7658;51.456;7.622;2024-01-30T10:17:12;9.90;99.90
15115;DHT22;7658;51.456;7.622;2024-01-30T10:19:41;10.00;99.90
15115;DHT22;7658;51.456;7.622;2024-01-30T10:22:08;10.00;99.90
15115;DHT22;7658;51.456;7.622;2024-01-30T10:24:34;10.10;99.90
15115;DHT22;7658;51.456;7.622;2024-01-30T10:27:01;10.20;99.90
15115;DHT22;7658;51.456;7.622;2024-01-30T10:29:27;10.20;99.90
15115;DHT22;7658;51.456;7.622;2024-01-30T10:32:04;10.20;99.90
15115;DHT22;7658;51.456;7.622;2024-01-30T10:34:31;10.20;99.90
15115;DHT22;7658;51.456;7.622;2024-01-30T10:37:07;10.20;99.90
15115;DHT22;7658;51.456;7.622;2024-01-30T10:39:39;10.20;99.90
15115;DHT22;7658;51.456;7.622;2024-01-30T10:42:05;10.30;99.90
15115;DHT22;7658;51.456;7.622;2024-01-30T10:44:57;10.30;99.90
15115;DHT22;7658;51.456;7.622;2024-01-30T10:47:27;10.30;99.90
15115;DHT22;7658;51.456;7.622;2024-01-30T10:49:54;10.30;99.90
15115;DHT22;7658;51.456;7.622;2024-01-30T10:52:20;10.40;99.90
15115;DHT22;7658;51.456;7.622;2024-01-30T10:54:46;10.50;99.90
15115;DHT22;7658;51.456;7.622;2024-01-30T10:57:13;10.60;99.90
15115;DHT22;7658;51.456;7.622;2024-01-30T10:59:41;10.60;99.90
15115;DHT22;7658;51.456;7.622;2024-01-30T11:02:09;10.60;99.90
15115;DHT22;7658;51.456;7.622;2024-01-30T11:04:41;10.70;99.90
15115;DHT22;7658;51.456;7.622;2024-01-30T11:07:25;10.70;99.90
15115;DHT22;7658;51.456;7.622;2024-01-30T11:12:27;10.80;99.90
15115;DHT22;7658;51.456;7.622;2024-01-30T11:15:06;10.90;99.90
15115;DHT22;7658;51.456;7.622;2024-01-30T11:20:15;11.20;99.90
15115;DHT22;7658;51.456;7.622;2024-01-30T11:22:42;11.30;99.90
15115;DHT22;7658;51.456;7.622;2024-01-30T11:25:14;11.40;99.90
15115;DHT22;7658;51.456;7.622;2024-01-30T11:27:41;11.60;99.90
15115;DHT22;7658;51.456;7.622;2024-01-30T11:30:08;11.80;99.90
15115;DHT22;7658;51.456;7.622;2024-01-30T11:32:34;12.00;99.90
15115;DHT22;7658;51.456;7.622;2024-01-30T11:35:00;12.00;7.30
15115;DHT22;7658;51.456;7.622;2024-01-30T11:37:26;12.10;1.00
15115;DHT22;7658;51.456;7.622;2024-01-30T11:39:53;12.30;1.00
15115;DHT22;7658;51.456;7.622;2024-01-30T11:42:21;12.50;1.00
15115;DHT22;7658;51.456;7.622;2024-01-30T11:44:49;12.60;1.00
15115;DHT22;7658;51.456;7.622;2024-01-30T11:47:16;12.70;1.00
15115;DHT22;7658;51.456;7.622;2024-01-30T11:49:42;12.70;1.00
15115;DHT22;7658;51.456;7.622;2024-01-30T11:52:09;12.70;1.00
15115;DHT22;7658;51.456;7.622;2024-01-30T11:54:35;12.80;1.00
15115;DHT22;7658;51.456;7.622;2024-01-30T11:57:01;12.90;1.00
15115;DHT22;7658;51.456;7.622;2024-01-30T11:59:26;13.00;1.00
15115;DHT22;7658;51.456;7.622;2024-01-30T12:01:52;13.00;1.00
15115;DHT22;7658;51.456;7.622;2024-01-30T12:04:18;13.00;1.00
15115;DHT22;7658;51.456;7.622;2024-01-30T12:06:44;13.00;1.00
15115;DHT22;7658;51.456;7.622;2024-01-30T12:09:10;13.00;1.00
15115;DHT22;7658;51.456;7.622;2024-01-30T12:11:48;13.00;1.00
15115;DHT22;7658;51.456;7.622;2024-01-30T12:14:14;12.80;1.00
15115;DHT22;7658;51.456;7.622;2024-01-30T12:16:40;12.70;1.00
15115;DHT22;7658;51.456;7.622;2024-01-30T12:19:07;12.60;1.00
15115;DHT22;7658;51.456;7.622;2024-01-30T12:21:34;12.60;1.00
15115;DHT22;7658;51.456;7.622;2024-01-30T12:24:00;12.50;1.00
15115;DHT22;7658;51.456;7.622;2024-01-30T12:26:26;12.40;1.00
15115;DHT22;7658;51.456;7.622;2024-01-30T12:28:55;12.40;1.00
15115;DHT22;7658;51.456;7.622;2024-01-30T12:31:28;12.50;1.00
15115;DHT22;7658;51.456;7.622;2024-01-30T12:33:54;12.50;1.00
15115;DHT22;7658;51.456;7.622;2024-01-30T12:36:21;12.60;1.00
15115;DHT22;7658;51.456;7.622;2024-01-30T12:38:47;12.60;1.00
15115;DHT22;7658;51.456;7.622;2024-01-30T12:41:13;12.50;1.00
15115;DHT22;7658;51.456;7.622;2024-01-30T12:43:39;12.50;1.00
15115;DHT22;7658;51.456;7.622;2024-01-30T12:46:05;12.40;10.00
15115;DHT22;7658;51.456;7.622;2024-01-30T12:48:31;12.30;18.70
15115;DHT22;7658;51.456;7.622;2024-01-30T12:50:57;12.30;90.50
15115;DHT22;7658;51.456;7.622;2024-01-30T12:53:23;12.30;91.50
15115;DHT22;7658;51.456;7.622;2024-01-30T12:55:49;12.30;99.90
15115;DHT22;7658;51.456;7.622;2024-01-30T12:58:15;12.20;99.90
15115;DHT22;7658;51.456;7.622;2024-01-30T13:00:42;12.10;99.90
15115;DHT22;7658;51.456;7.622;2024-01-30T13:03:09;12.10;99.90
15115;DHT22;7658;51.456;7.622;2024-01-30T13:05:35;12.00;99.90
15115;DHT22;7658;51.456;7.622;2024-01-30T13:08:01;12.00;99.90
15115;DHT22;7658;51.456;7.622;2024-01-30T13:10:27;12.00;99.90
15115;DHT22;7658;51.456;7.622;2024-01-30T13:12:53;12.00;99.90
15115;DHT22;7658;51.456;7.622;2024-01-30T13:15:19;12.00;99.90
15115;DHT22;7658;51.456;7.622;2024-01-30T13:17:45;11.90;99.90
15115;DHT22;7658;51.456;7.622;2024-01-30T13:20:13;11.80;99.90
15115;DHT22;7658;51.456;7.622;2024-01-30T13:22:43;11.80;99.90
15115;DHT22;7658;51.456;7.622;2024-01-30T13:25:09;11.80;99.90
15115;DHT22;7658;51.456;7.622;2024-01-30T13:27:35;11.80;99.90
15115;DHT22;7658;51.456;7.622;2024-01-30T13:30:01;11.80;99.90
15115;DHT22;7658;51.456;7.622;2024-01-30T13:32:27;11.70;99.90
15115;DHT22;7658;51.456;7.622;2024-01-30T13:34:53;11.70;99.90
15115;DHT22;7658;51.456;7.622;2024-01-30T13:37:18;11.70;99.90
15115;DHT22;7658;51.456;7.622;2024-01-30T13:39:44;11.60;99.90
15115;DHT22;7658;51.456;7.622;2024-01-30T13:42:10;11.70;99.90
15115;DHT22;7658;51.456;7.622;2024-01-30T13:44:36;11.60;99.90
15115;DHT22;7658;51.456;7.622;2024-01-30T13:47:02;11.60;99.90
15115;DHT22;7658;51.456;7.622;2024-01-30T13:49:28;11.60;99.90
15115;DHT22;7658;51.456;7.622;2024-01-30T13:51:53;11.60;99.90
15115;DHT22;7658;51.456;7.622;2024-01-30T13:54:19;11.60;99.90
15115;DHT22;7658;51.456;7.622;2024-01-30T13:56:45;11.60;99.90
15115;DHT22;7658;51.456;7.622;2024-01-30T13:59:11;11.60;99.90
15115;DHT22;7658;51.456;7.622;2024-01-30T14:01:36;11.60;99.90
15115;DHT22;7658;51.456;7.622;2024-01-30T14:04:02;11.50;99.90
15115;DHT22;7658;51.456;7.622;2024-01-30T14:06:28;11.50;99.90
15115;DHT22;7658;51.456;7.622;2024-01-30T14:08:54;11.50;99.90
15115;DHT22;7658;51.456;7.622;2024-01-30T14:11:19;11.50;99.90
15115;DHT22;7658;51.456;7.622;2024-01-30T14:13:45;11.40;99.90
15115;DHT22;7658;51.456;7.622;2024-01-30T14:16:11;11.40;99.90
15115;DHT22;7658;51.456;7.622;2024-01-30T14:18:37;11.50;99.90
15115;DHT22;7658;51.456;7.622;2024-01-30T14:21:03;11.50;99.90
15115;DHT22;7658;51.456;7.622;2024-01-30T14:23:28;11.40;99.90
15115;DHT22;7658;51.456;7.622;2024-01-30T14:25:54;11.30;99.90
15115;DHT22;7658;51.456;7.622;2024-01-30T14:28:20;11.40;99.90
15115;DHT22;7658;51.456;7.622;2024-01-30T14:30:46;11.30;99.90
15115;DHT22;7658;51.456;7.622;2024-01-30T14:33:12;11.40;99.90
15115;DHT22;7658;51.456;7.622;2024-01-30T14:35:38;11.40;99.90
15115;DHT22;7658;51.456;7.622;2024-01-30T14:38:04;11.40;99.90
15115;DHT22;7658;51.456;7.622;2024-01-30T14:40:31;11.40;99.90
15115;DHT22;7658;51.456;7.622;2024-01-30T14:42:56;11.30;99.90
15115;DHT22;7658;51.456;7.622;2024-01-30T14:45:22;11.30;99.90
15115;DHT22;7658;51.456;7.622;2024-01-30T14:47:48;11.30;99.90
15115;DHT22;7658;51.456;7.622;2024-01-30T14:50:14;11.30;99.90
15115;DHT22;7658;51.456;7.622;2024-01-30T14:52:42;11.30;99.90
15115;DHT22;7658;51.456;7.622;2024-01-30T14:55:08;11.30;99.90
15115;DHT22;7658;51.456;7.622;2024-01-30T14:57:34;11.30;99.90
15115;DHT22;7658;51.456;7.622;2024-01-30T15:00:00;11.30;99.90
15115;DHT22;7658;51.456;7.622;2024-01-30T15:02:26;11.30;99.90
15115;DHT22;7658;51.456;7.622;2024-01-30T15:04:52;11.30;99.90
15115;DHT22;7658;51.456;7.622;2024-01-30T15:07:18;11.30;99.90
15115;DHT22;7658;51.456;7.622;2024-01-30T15:09:44;11.30;99.90
15115;DHT22;7658;51.456;7.622;2024-01-30T15:12:10;11.30;99.90
15115;DHT22;7658;51.456;7.622;2024-01-30T15:14:35;11.40;99.90
15115;DHT22;7658;51.456;7.622;2024-01-30T15:17:01;11.40;99.90
15115;DHT22;7658;51.456;7.622;2024-01-30T15:19:27;11.40;99.90
15115;DHT22;7658;51.456;7.622;2024-01-30T15:21:53;11.40;99.90
15115;DHT22;7658;51.456;7.622;2024-01-30T15:24:19;11.40;99.90
15115;DHT22;7658;51.456;7.622;2024-01-30T15:26:50;11.40;99.90
15115;DHT22;7658;51.456;7.622;2024-01-30T15:29:16;11.30;99.90
15115;DHT22;7658;51.456;7.622;2024-01-30T15:31:42;11.40;99.90
15115;DHT22;7658;51.456;7.622;2024-01-30T15:34:08;11.30;99.90
15115;DHT22;7658;51.456;7.622;2024-01-30T15:36:34;11.30;99.90
15115;DHT22;7658;51.456;7.622;2024-01-30T15:38:59;11.30;99.90
15115;DHT22;7658;51.456;7.622;2024-01-30T15:41:25;11.30;99.90
15115;DHT22;7658;51.456;7.622;2024-01-30T15:43:51;11.40;99.90
15115;DHT22;7658;51.456;7.622;2024-01-30T15:46:17;11.30;99.90
15115;DHT22;7658;51.456;7.622;2024-01-30T15:48:42;11.30;99.90
15115;DHT22;7658;51.456;7.622;2024-01-30T15:51:08;11.30;99.90
15115;DHT22;7658;51.456;7.622;2024-01-30T15:53:34;11.30;99.90
15115;DHT22;7658;51.456;7.622;2024-01-30T15:56:00;11.20;99.90
15115;DHT22;7658;51.456;7.622;2024-01-30T15:58:26;11.20;99.90
15115;DHT22;7658;51.456;7.622;2024-01-30T16:00:52;11.20;99.90